Time;durP1;ratioP1;P1;durP2;ratioP2;P2;SDS_P1;SDS_P2;PMS_P1;PMS_P2;Temp;Humidity;BMP_temperature;BMP_pressure;BME280_temperature;BME280_humidity;BME280_pressure;Samples;Min_cycle;Max_cycle;Signal;HPM_P1;HPM_P2
2022/06/30 00:00:00;;;;;;;14.00;12.55;;;;;;;19.92;83.71;100949.84;5097527;28;20024;-58
2022/06/30 00:02:25;;;;;;;15.43;12.43;;;;;;;19.91;83.95;100943.69;5097485;28;20062;-60
2022/06/30 00:04:50;;;;;;;16.73;12.38;;;;;;;19.89;83.46;100945.56;5096936;28;20032;-58
2022/06/30 00:07:16;;;;;;;14.88;12.30;;;;;;;19.95;83.14;100947.03;5097274;28;20047;-58
2022/06/30 00:09:42;;;;;;;13.57;12.13;;;;;;;19.90;84.45;100946.44;5097319;28;20115;-58
2022/06/30 00:12:07;;;;;;;15.02;12.52;;;;;;;19.93;82.79;100940.94;5097210;28;20119;-58
2022/06/30 00:14:32;;;;;;;15.05;12.50;;;;;;;19.89;83.45;100934.09;5097339;28;20103;-59
2022/06/30 00:16:58;;;;;;;15.60;12.95;;;;;;;19.93;82.75;100931.16;5097323;28;20303;-59
2022/06/30 00:19:23;;;;;;;16.35;13.63;;;;;;;20.01;80.85;100934.31;5079022;28;20119;-58
2022/06/30 00:21:48;;;;;;;15.00;12.57;;;;;;;20.06;81.06;100926.97;5097045;28;20040;-58
2022/06/30 00:24:14;;;;;;;14.45;12.95;;;;;;;20.14;80.37;100922.09;5097276;28;20111;-58
2022/06/30 00:26:39;;;;;;;13.95;12.45;;;;;;;20.18;79.73;100912.19;5097279;28;20024;-58
2022/06/30 00:29:04;;;;;;;16.20;12.32;;;;;;;20.19;79.68;100913.91;5096952;28;20028;-58
2022/06/30 00:31:30;;;;;;;13.85;11.73;;;;;;;20.23;79.01;100911.97;5097620;28;20102;-58
2022/06/30 00:33:55;;;;;;;14.30;11.80;;;;;;;20.20;79.44;100910.31;5096751;28;20363;-58
2022/06/30 00:36:20;;;;;;;13.32;11.93;;;;;;;20.23;79.33;100910.16;5096903;28;20070;-58
2022/06/30 00:38:46;;;;;;;16.50;12.45;;;;;;;20.12;78.63;100904.53;5096958;28;20040;-58
2022/06/30 00:41:11;;;;;;;16.23;11.98;;;;;;;20.16;79.13;100914.06;5096768;28;20032;-58
2022/06/30 00:43:44;;;;;;;14.95;12.23;;;;;;;20.07;80.11;100914.56;5096702;28;20028;-58
2022/06/30 00:46:10;;;;;;;12.23;10.90;;;;;;;19.99;80.06;100916.72;5096510;28;20032;-60
2022/06/30 00:48:35;;;;;;;12.15;10.90;;;;;;;19.94;80.31;100918.75;5096591;28;20027;-58
2022/06/30 00:51:04;;;;;;;16.17;11.57;;;;;;;19.84;80.97;100923.69;5096444;28;20036;-58
2022/06/30 00:53:32;;;;;;;14.30;11.68;;;;;;;19.80;81.30;100922.13;5096473;28;20032;-59
2022/06/30 00:55:57;;;;;;;15.25;11.32;;;;;;;19.68;81.01;100925.38;5096485;28;20024;-59
2022/06/30 00:58:25;;;;;;;12.63;11.20;;;;;;;19.62;82.23;100926.53;5096354;28;20449;-59
2022/06/30 01:00:51;;;;;;;14.02;11.98;;;;;;;19.52;82.25;100924.44;5096483;28;20032;-58
2022/06/30 01:03:17;;;;;;;12.55;11.25;;;;;;;19.55;82.09;100917.19;5096249;28;20039;-58
2022/06/30 01:05:43;;;;;;;14.80;10.95;;;;;;;19.57;82.12;100919.75;5096057;28;20086;-57
2022/06/30 01:08:10;;;;;;;13.68;11.38;;;;;;;19.45;83.72;100929.13;5096133;28;20056;-58
2022/06/30 01:13:20;;;;;;;13.10;11.65;;;;;;;19.40;83.62;100921.38;5096387;28;20046;-59
2022/06/30 01:15:46;;;;;;;12.10;10.82;;;;;;;19.28;84.64;100924.66;5096037;28;20036;-58
2022/06/30 01:18:11;;;;;;;11.65;10.40;;;;;;;19.27;85.12;100928.22;5095908;28;20024;-58
2022/06/30 01:20:38;;;;;;;13.82;12.27;;;;;;;19.20;85.15;100929.47;5095758;28;20077;-58
2022/06/30 01:23:04;;;;;;;13.27;11.85;;;;;;;19.20;84.40;100934.78;5095390;28;20101;-58
2022/06/30 01:25:30;;;;;;;12.25;11.02;;;;;;;19.24;84.51;100924.84;5095777;28;20027;-58
2022/06/30 01:27:55;;;;;;;13.20;11.18;;;;;;;19.17;85.09;100924.31;5096070;28;20032;-58
2022/06/30 01:30:22;;;;;;;14.52;11.80;;;;;;;19.16;85.18;100929.69;5095752;28;20455;-58
2022/06/30 01:32:48;;;;;;;12.43;11.13;;;;;;;19.06;85.96;100932.75;5095887;28;20054;-58
2022/06/30 01:35:14;;;;;;;13.85;11.55;;;;;;;19.03;85.79;100938.22;5096006;28;20423;-58
2022/06/30 01:37:57;;;;;;;12.77;11.48;;;;;;;19.05;85.71;100938.13;5095632;28;20039;-58
2022/06/30 01:40:25;;;;;;;13.55;10.63;;;;;;;18.96;86.25;100938.56;5095623;28;20035;-58
2022/06/30 01:42:51;;;;;;;11.90;10.27;;;;;;;18.95;86.15;100935.06;5095534;28;20111;-58
2022/06/30 01:45:17;;;;;;;16.30;11.43;;;;;;;19.02;85.81;100936.50;5095505;28;20115;-58
2022/06/30 01:47:42;;;;;;;13.85;11.48;;;;;;;18.97;86.43;100943.81;5095492;28;20060;-58
2022/06/30 01:50:15;;;;;;;15.30;11.63;;;;;;;18.95;86.01;100936.84;5095227;28;20402;-58
2022/06/30 01:52:40;;;;;;;13.57;11.63;;;;;;;18.83;86.88;100935.66;5095791;28;20020;-58
2022/06/30 01:55:09;;;;;;;12.85;11.55;;;;;;;18.81;87.21;100933.97;5095221;28;20036;-58
2022/06/30 01:57:36;;;;;;;12.40;11.07;;;;;;;18.79;87.05;100939.34;5095397;28;20092;-58
2022/06/30 02:00:04;;;;;;;16.02;11.70;;;;;;;18.74;87.43;100933.41;5095181;28;20097;-58
2022/06/30 02:02:29;;;;;;;13.60;12.20;;;;;;;18.67;87.07;100930.19;5095225;28;20031;-58
2022/06/30 02:04:54;;;;;;;13.15;11.85;;;;;;;18.60;88.06;100931.38;5095103;28;20438;-58
2022/06/30 02:07:21;;;;;;;13.75;11.38;;;;;;;18.60;88.18;100941.13;5095413;28;20028;-58
2022/06/30 02:09:50;;;;;;;13.38;11.10;;;;;;;18.64;87.29;100940.91;5095168;28;20028;-58
2022/06/30 02:15:04;;;;;;;13.38;12.05;;;;;;;18.46;88.10;100946.16;5095549;28;20063;-58
2022/06/30 02:17:30;;;;;;;12.63;11.07;;;;;;;18.48;87.36;100939.84;5094949;28;20443;-57
2022/06/30 02:19:55;;;;;;;15.35;11.57;;;;;;;18.39;88.05;100948.19;5095102;28;20032;-58
2022/06/30 02:22:20;;;;;;;13.38;12.00;;;;;;;18.42;88.34;100948.94;5094874;28;20119;-58
2022/06/30 02:24:46;;;;;;;13.85;12.45;;;;;;;18.41;88.33;100949.84;5095026;28;20028;-57
2022/06/30 02:27:11;;;;;;;14.00;12.13;;;;;;;18.36;89.24;100949.19;5094970;28;20032;-58
2022/06/30 02:29:36;;;;;;;14.88;11.70;;;;;;;18.34;89.89;100952.84;5094903;28;20035;-60
2022/06/30 02:32:02;;;;;;;14.32;11.95;;;;;;;18.33;89.12;100962.59;5095263;28;20090;-58
2022/06/30 02:34:28;;;;;;;13.68;12.15;;;;;;;18.31;88.64;100967.09;5094604;28;20036;-58
2022/06/30 02:36:54;;;;;;;14.50;12.05;;;;;;;18.32;88.95;100963.53;5098314;28;20028;-58
2022/06/30 02:39:19;;;;;;;12.45;11.05;;;;;;;18.28;89.03;100956.63;5098939;28;20051;-58
2022/06/30 02:41:45;;;;;;;14.85;11.75;;;;;;;18.14;89.48;100932.53;5099160;28;20439;-58
2022/06/30 02:44:10;;;;;;;13.23;11.45;;;;;;;18.24;89.10;100951.53;5098982;28;20545;-57
2022/06/30 02:46:36;;;;;;;12.95;11.32;;;;;;;18.22;89.39;100948.06;5098873;28;20063;-58
2022/06/30 02:49:01;;;;;;;13.82;11.32;;;;;;;18.16;88.49;100951.00;5098879;28;20064;-57
2022/06/30 02:51:26;;;;;;;13.52;11.15;;;;;;;18.09;88.87;100945.09;5099030;28;20055;-57
2022/06/30 02:53:51;;;;;;;12.93;10.95;;;;;;;18.00;89.63;100943.72;5098637;28;20367;-57
2022/06/30 02:56:17;;;;;;;14.50;11.63;;;;;;;17.96;90.37;100950.06;5098859;28;20024;-58
2022/06/30 02:58:43;;;;;;;12.50;11.15;;;;;;;17.91;90.03;100948.53;5098717;28;20054;-58
2022/06/30 03:01:08;;;;;;;13.13;11.52;;;;;;;17.82;91.17;100947.13;5098677;28;20032;-58
2022/06/30 03:03:33;;;;;;;13.90;12.40;;;;;;;17.87;90.58;100938.97;5098741;28;20088;-58
2022/06/30 03:05:58;;;;;;;13.77;11.68;;;;;;;17.82;90.86;100938.34;5098757;28;20447;-59
2022/06/30 03:08:24;;;;;;;13.15;11.77;;;;;;;17.79;91.15;100946.41;5098045;28;20048;-58
2022/06/30 03:10:49;;;;;;;13.00;11.60;;;;;;;17.70;91.07;100940.53;5098309;28;20351;-58
2022/06/30 03:13:15;;;;;;;13.52;12.13;;;;;;;17.69;91.47;100937.97;5098655;28;20024;-57
2022/06/30 03:15:40;;;;;;;13.77;12.25;;;;;;;17.70;91.56;100929.97;5098356;28;20133;-57
2022/06/30 03:18:05;;;;;;;12.98;11.48;;;;;;;17.62;92.15;100936.47;5099077;28;20033;-57
2022/06/30 03:20:30;;;;;;;13.85;12.45;;;;;;;17.65;91.82;100934.59;5098555;28;20036;-58
2022/06/30 03:22:56;;;;;;;14.63;12.20;;;;;;;17.59;91.69;100934.81;5097598;28;20500;-58
2022/06/30 03:25:21;;;;;;;14.35;11.82;;;;;;;17.56;92.46;100929.63;5097938;28;20502;-58
2022/06/30 03:27:47;;;;;;;14.10;12.30;;;;;;;17.61;92.05;100929.44;5097899;28;20035;-58
2022/06/30 03:30:12;;;;;;;13.93;12.15;;;;;;;17.60;91.46;100928.59;5097816;28;20375;-58
2022/06/30 03:32:37;;;;;;;13.95;12.35;;;;;;;17.56;92.49;100931.41;5098312;28;20040;-58
2022/06/30 03:35:04;;;;;;;13.02;11.77;;;;;;;17.50;92.52;100940.47;5098076;28;20039;-57
2022/06/30 03:37:29;;;;;;;13.13;11.77;;;;;;;17.51;92.42;100939.53;5097896;28;20035;-57
2022/06/30 03:39:55;;;;;;;12.38;11.15;;;;;;;17.51;91.03;100928.94;5098057;28;20030;-58
2022/06/30 03:42:20;;;;;;;15.27;12.07;;;;;;;17.35;92.26;100915.47;5097923;28;20059;-58
2022/06/30 03:44:45;;;;;;;13.55;11.30;;;;;;;17.34;92.30;100916.41;5097967;28;20052;-58
2022/06/30 03:47:11;;;;;;;14.02;11.32;;;;;;;17.40;92.78;100939.97;5097294;28;20431;-57
2022/06/30 03:49:36;;;;;;;15.23;12.40;;;;;;;17.40;92.78;100925.88;5097821;28;20111;-58
2022/06/30 03:52:01;;;;;;;13.55;11.90;;;;;;;17.41;92.95;100932.91;5097563;28;20342;-57
2022/06/30 03:54:27;;;;;;;13.40;11.68;;;;;;;17.40;92.67;100932.03;5097905;28;20437;-57
2022/06/30 03:56:53;;;;;;;15.10;12.07;;;;;;;17.42;93.18;100928.47;5097893;28;20031;-58
2022/06/30 03:59:18;;;;;;;14.13;12.48;;;;;;;17.39;92.96;100921.53;5097485;28;20109;-58
2022/06/30 04:01:43;;;;;;;14.35;12.40;;;;;;;17.40;93.17;100913.53;5097603;28;20031;-58
2022/06/30 04:04:08;;;;;;;13.27;11.60;;;;;;;17.42;93.51;100925.84;5097428;28;20400;-58
2022/06/30 04:06:34;;;;;;;13.40;12.00;;;;;;;17.43;93.33;100923.13;5097274;28;20035;-59
2022/06/30 04:08:59;;;;;;;15.88;11.30;;;;;;;17.44;92.99;100922.22;5097279;28;20032;-58
2022/06/30 04:11:24;;;;;;;15.02;11.25;;;;;;;17.49;92.90;100917.56;5097411;28;20024;-58
2022/06/30 04:13:49;;;;;;;13.57;11.50;;;;;;;17.49;92.72;100919.38;5097217;28;20035;-58
2022/06/30 04:16:15;;;;;;;13.88;11.88;;;;;;;17.51;92.79;100917.50;5097177;28;20435;-57
2022/06/30 04:18:40;;;;;;;13.90;12.30;;;;;;;17.48;93.30;100918.53;5097344;28;20042;-58
2022/06/30 04:21:06;;;;;;;12.70;11.40;;;;;;;17.50;93.12;100915.78;5097281;28;20036;-59
2022/06/30 04:23:31;;;;;;;12.20;11.00;;;;;;;17.52;93.24;100924.53;5096990;28;20032;-57
2022/06/30 04:25:56;;;;;;;14.10;11.90;;;;;;;17.53;93.73;100940.34;5096889;28;20028;-57
2022/06/30 04:28:22;;;;;;;15.88;11.80;;;;;;;17.60;93.04;100928.59;5096946;28;20354;-58
2022/06/30 04:33:30;;;;;;;17.50;12.40;;;;;;;17.71;92.22;100934.31;5097244;28;20461;-59
2022/06/30 04:35:56;;;;;;;14.95;11.40;;;;;;;17.82;92.02;100944.50;5096728;28;20039;-57
2022/06/30 04:38:21;;;;;;;17.35;12.20;;;;;;;17.84;92.88;100973.53;5096584;28;20031;-57
2022/06/30 04:43:30;;;;;;;13.80;12.27;;;;;;;17.90;91.33;100946.78;5097057;28;20086;-58
2022/06/30 04:45:56;;;;;;;16.52;13.77;;;;;;;17.89;91.78;100980.34;5096763;28;20055;-58
2022/06/30 04:48:21;;;;;;;16.92;15.15;;;;;;;17.95;91.20;100971.31;5095858;28;20369;-58
2022/06/30 04:50:46;;;;;;;16.75;14.98;;;;;;;17.88;91.33;100968.03;5096184;28;20071;-57
2022/06/30 04:53:12;;;;;;;19.17;17.02;;;;;;;17.87;91.53;100999.88;5096266;28;20031;-58
2022/06/30 04:55:37;;;;;;;19.48;17.33;;;;;;;17.79;92.15;100976.38;5096311;28;20086;-57
2022/06/30 04:58:03;;;;;;;20.65;18.55;;;;;;;17.62;92.63;100979.69;5095540;28;20028;-57
2022/06/30 05:00:28;;;;;;;21.38;19.15;;;;;;;17.62;92.78;100995.56;5096245;28;20335;-57
2022/06/30 05:02:53;;;;;;;22.60;20.20;;;;;;;17.64;92.84;100975.22;5096135;28;20077;-59
2022/06/30 05:05:19;;;;;;;20.98;18.52;;;;;;;17.64;92.93;100977.88;5115422;28;20114;-59
2022/06/30 05:07:44;;;;;;;22.60;19.95;;;;;;;17.72;92.78;100991.63;5116469;28;20079;-57
2022/06/30 05:10:10;;;;;;;23.25;20.55;;;;;;;17.66;93.24;100977.81;5116516;28;20488;-58
2022/06/30 05:12:35;;;;;;;23.90;20.25;;;;;;;17.70;92.95;100976.72;5116421;28;20350;-58
2022/06/30 05:15:01;;;;;;;26.10;21.33;;;;;;;17.72;92.92;100980.19;5115630;28;20445;-57
2022/06/30 05:17:26;;;;;;;24.35;21.77;;;;;;;17.71;93.52;100971.38;5116477;28;20416;-57
2022/06/30 05:19:52;;;;;;;26.50;21.73;;;;;;;17.77;93.38;100965.00;5113292;28;20036;-57
2022/06/30 05:22:18;;;;;;;24.60;21.88;;;;;;;17.82;92.86;100970.09;5095601;28;20032;-59
2022/06/30 05:27:27;;;;;;;28.05;23.67;;;;;;;17.85;92.04;100977.88;5098303;28;20042;-57
2022/06/30 05:29:52;;;;;;;27.70;24.25;;;;;;;17.85;92.69;100980.53;5109812;28;20431;-58
2022/06/30 05:32:17;;;;;;;26.85;23.92;;;;;;;17.87;92.82;100974.25;5115688;28;20028;-59
2022/06/30 05:34:42;;;;;;;28.15;23.05;;;;;;;17.94;92.48;100974.88;5104382;28;20028;-58
2022/06/30 05:37:08;;;;;;;30.85;23.90;;;;;;;17.92;92.36;100976.72;5095576;28;20111;-58
2022/06/30 05:39:33;;;;;;;26.60;22.90;;;;;;;17.96;92.01;100986.28;5099666;28;20047;-58
2022/06/30 05:42:00;;;;;;;29.20;22.20;;;;;;;17.98;91.98;100980.00;5116044;28;20400;-59
2022/06/30 05:44:26;;;;;;;25.83;21.40;;;;;;;17.96;91.50;100983.63;5116070;28;20034;-57
2022/06/30 05:46:51;;;;;;;23.88;20.92;;;;;;;18.03;91.36;100985.94;5115835;28;20077;-57
2022/06/30 05:49:17;;;;;;;25.50;20.38;;;;;;;18.10;91.86;100991.84;5115635;28;20031;-58
2022/06/30 05:51:42;;;;;;;22.00;18.95;;;;;;;18.10;90.47;100999.78;5116007;28;20036;-58
2022/06/30 05:54:07;;;;;;;21.42;17.70;;;;;;;18.07;89.61;100990.19;5115963;28;20038;-57
2022/06/30 05:56:33;;;;;;;18.63;16.63;;;;;;;18.07;89.72;100989.31;5115936;28;20059;-57
2022/06/30 05:58:58;;;;;;;21.85;17.33;;;;;;;18.04;89.71;100992.09;5115701;28;20028;-57
2022/06/30 06:01:23;;;;;;;17.40;15.45;;;;;;;18.48;89.07;100990.22;5115472;28;20027;-57
2022/06/30 06:03:48;;;;;;;19.33;15.23;;;;;;;19.38;84.53;100980.81;5115685;28;20057;-57
2022/06/30 06:06:14;;;;;;;19.57;15.00;;;;;;;19.59;82.13;100977.13;5115668;28;20031;-57
2022/06/30 06:08:40;;;;;;;22.33;14.03;;;;;;;19.54;81.90;100976.53;5115642;28;20269;-57
2022/06/30 06:11:05;;;;;;;18.60;13.63;;;;;;;19.29;82.77;100984.75;5115401;28;20280;-57
2022/06/30 06:13:30;;;;;;;16.30;12.40;;;;;;;19.08;84.00;100996.34;5115461;28;20323;-57
2022/06/30 06:15:56;;;;;;;18.23;13.00;;;;;;;18.89;84.69;100996.31;5115518;28;20053;-57
2022/06/30 06:18:21;;;;;;;15.32;12.40;;;;;;;18.66;85.36;100994.72;5115049;28;20031;-58
2022/06/30 06:20:46;;;;;;;17.17;12.73;;;;;;;18.64;85.95;101004.53;5111500;28;20020;-57
2022/06/30 06:23:12;;;;;;;16.60;12.60;;;;;;;18.59;86.84;101006.53;5114653;28;20024;-58
2022/06/30 06:25:37;;;;;;;25.15;13.02;;;;;;;18.51;86.67;100999.81;5114905;28;20028;-57
2022/06/30 06:30:54;;;;;;;16.35;12.85;;;;;;;18.52;87.46;101004.19;5076170;28;20079;-57
2022/06/30 06:33:21;;;;;;;17.23;12.85;;;;;;;18.51;88.08;101007.78;5102731;28;20439;-57
2022/06/30 06:35:46;;;;;;;15.60;13.05;;;;;;;18.53;88.25;101014.69;5094828;28;20036;-58
2022/06/30 06:38:11;;;;;;;17.85;13.15;;;;;;;18.54;88.25;101015.56;5094748;28;20032;-57
2022/06/30 06:40:37;;;;;;;13.98;12.10;;;;;;;18.56;88.58;101014.56;5094529;28;20107;-57
2022/06/30 06:43:02;;;;;;;17.13;12.23;;;;;;;18.56;88.43;101013.72;5094284;28;20105;-58
2022/06/30 06:45:27;;;;;;;19.88;12.18;;;;;;;18.57;87.50;101018.09;5094593;28;20111;-58
2022/06/30 06:47:52;;;;;;;17.50;11.90;;;;;;;18.57;88.50;101013.66;5094694;28;20415;-58
2022/06/30 06:50:18;;;;;;;19.08;11.57;;;;;;;18.62;88.54;101019.66;5105705;28;20106;-58
2022/06/30 06:52:43;;;;;;;18.15;12.45;;;;;;;18.65;88.73;101023.97;5103809;28;20032;-58
2022/06/30 06:55:09;;;;;;;17.85;11.48;;;;;;;18.74;88.08;101021.75;5096131;28;20047;-58
2022/06/30 06:57:39;;;;;;;17.35;11.80;;;;;;;18.83;88.45;101028.44;5094559;28;20043;-58
2022/06/30 07:00:06;;;;;;;17.55;11.73;;;;;;;18.91;87.66;101028.94;5094980;28;20063;-58
2022/06/30 07:02:32;;;;;;;16.70;11.02;;;;;;;18.99;87.78;101026.81;5097866;28;20039;-58
2022/06/30 07:04:57;;;;;;;16.45;11.38;;;;;;;19.07;87.70;101035.28;5108884;28;20085;-58
2022/06/30 07:07:22;;;;;;;17.88;11.95;;;;;;;19.04;87.05;101038.09;5114980;28;20453;-58
2022/06/30 07:09:48;;;;;;;18.63;11.43;;;;;;;19.06;87.02;101044.16;5109944;28;20023;-58
2022/06/30 07:12:13;;;;;;;16.25;11.15;;;;;;;19.06;87.19;101048.59;5094430;28;20031;-58
2022/06/30 07:14:38;;;;;;;15.20;11.13;;;;;;;19.14;87.37;101054.44;5094456;28;20107;-58
2022/06/30 07:17:04;;;;;;;17.00;10.88;;;;;;;19.19;87.69;101063.06;5094517;28;20032;-58
2022/06/30 07:19:29;;;;;;;17.90;10.85;;;;;;;19.27;87.48;101062.69;5094585;28;20027;-58
2022/06/30 07:21:55;;;;;;;12.60;9.98;;;;;;;19.32;86.67;101073.97;5096255;28;20035;-58
2022/06/30 07:24:20;;;;;;;14.73;10.07;;;;;;;19.33;86.23;101067.72;5098401;28;20031;-58
2022/06/30 07:26:45;;;;;;;16.55;9.98;;;;;;;19.37;86.52;101070.19;5097911;28;20286;-58
2022/06/30 07:29:11;;;;;;;15.40;9.88;;;;;;;19.37;84.47;101069.31;5097583;28;20032;-58
2022/06/30 07:31:36;;;;;;;13.05;9.13;;;;;;;19.35;85.01;101061.44;5097718;28;20131;-58
2022/06/30 07:34:02;;;;;;;14.07;8.40;;;;;;;19.45;85.53;101056.53;5097966;28;20028;-58
2022/06/30 07:36:27;;;;;;;15.50;8.65;;;;;;;19.51;85.29;101055.44;5080283;28;20032;-57
2022/06/30 07:38:53;;;;;;;14.57;8.90;;;;;;;19.59;84.81;101043.50;5097703;28;20032;-58
2022/06/30 07:41:19;;;;;;;13.07;7.68;;;;;;;19.68;84.75;101051.06;5097874;28;20032;-57
2022/06/30 07:43:44;;;;;;;13.90;7.97;;;;;;;19.72;83.58;101044.66;5098080;28;20111;-50
2022/06/30 07:46:10;;;;;;;12.00;7.88;;;;;;;19.73;82.81;101056.16;5100363;28;20039;-47
2022/06/30 07:48:35;;;;;;;12.30;7.50;;;;;;;19.83;82.84;101056.56;5108393;28;20413;-47
2022/06/30 07:51:01;;;;;;;12.68;7.07;;;;;;;19.91;82.16;101059.72;5106253;28;20108;-47
2022/06/30 07:53:26;;;;;;;12.38;7.13;;;;;;;20.04;81.01;101056.38;5099828;28;20119;-47
2022/06/30 07:55:51;;;;;;;14.48;7.13;;;;;;;20.16;79.92;101053.09;5105413;28;20116;-45
2022/06/30 07:58:17;;;;;;;12.98;6.40;;;;;;;20.15;80.14;101050.50;5111447;28;20054;-47
2022/06/30 08:00:42;;;;;;;11.10;6.55;;;;;;;20.11;80.14;101057.78;5116035;28;20510;-58
2022/06/30 08:03:07;;;;;;;14.15;6.80;;;;;;;20.17;77.78;101053.97;5117716;28;20126;-57
2022/06/30 08:05:33;;;;;;;11.63;6.13;;;;;;;20.17;77.73;101046.00;5107893;28;20080;-57
2022/06/30 08:07:58;;;;;;;11.68;5.97;;;;;;;20.22;76.92;101032.47;5097444;28;20415;-61
2022/06/30 08:10:24;;;;;;;12.15;5.75;;;;;;;20.23;76.29;101039.53;5097243;28;20032;-58
2022/06/30 08:12:49;;;;;;;8.85;5.40;;;;;;;20.29;76.22;101048.03;5097051;28;20039;-59
2022/06/30 08:15:16;;;;;;;9.32;5.00;;;;;;;20.30;76.23;101049.75;5110054;28;20035;-58
2022/06/30 08:17:41;;;;;;;14.10;5.80;;;;;;;20.36;75.93;101048.59;5108598;28;20031;-58
2022/06/30 08:20:07;;;;;;;12.02;5.53;;;;;;;20.39;75.97;101046.66;5117480;28;20032;-58
2022/06/30 08:22:33;;;;;;;11.00;6.53;;;;;;;20.39;75.73;101051.13;5113969;28;20165;-58
2022/06/30 08:24:59;;;;;;;9.45;5.57;;;;;;;20.43;75.57;101047.38;5116695;28;20024;-61
2022/06/30 08:27:24;;;;;;;11.40;6.50;;;;;;;20.49;75.26;101047.06;5117221;28;20055;-55
2022/06/30 08:29:49;;;;;;;7.70;5.07;;;;;;;20.62;76.57;101061.44;5117524;28;20027;-55
2022/06/30 08:32:15;;;;;;;11.82;5.65;;;;;;;20.72;75.99;101051.19;5117314;28;20169;-55
2022/06/30 08:34:41;;;;;;;10.15;5.20;;;;;;;20.83;74.44;101062.97;5116423;28;20058;-54
2022/06/30 08:37:07;;;;;;;9.70;5.95;;;;;;;20.89;74.42;101063.59;5116383;28;20031;-56
2022/06/30 08:42:20;;;;;;;12.95;6.10;;;;;;;21.03;74.31;101053.94;5113551;28;20050;-54
2022/06/30 08:45:13;;;;;;;10.25;5.85;;;;;;;21.04;73.89;101054.81;5117040;28;20351;-56
2022/06/30 08:47:31;;;;;;;9.38;5.45;;;;;;;21.15;73.17;101057.75;5116701;28;20082;-55
2022/06/30 08:49:56;;;;;;;11.68;5.53;;;;;;;21.11;73.07;101035.78;5116776;28;20106;-55
2022/06/30 08:52:28;;;;;;;13.63;6.47;;;;;;;21.34;73.19;101046.97;5116908;28;20347;-54
2022/06/30 08:54:55;;;;;;;9.73;4.97;;;;;;;21.44;72.85;101051.75;5116900;28;20028;-55
2022/06/30 08:57:21;;;;;;;11.07;6.00;;;;;;;21.55;71.69;101053.78;5116996;28;20331;-52
2022/06/30 08:59:46;;;;;;;10.48;6.15;;;;;;;21.75;70.28;101058.00;5117103;28;20035;-55
2022/06/30 09:02:12;;;;;;;11.40;5.97;;;;;;;22.11;70.05;101060.41;5116725;28;20028;-54
2022/06/30 09:04:37;;;;;;;9.60;4.95;;;;;;;22.48;69.70;101059.13;5114638;28;20031;-57
2022/06/30 09:07:03;;;;;;;6.00;4.75;;;;;;;22.96;68.03;101065.13;5109892;28;20088;-57
2022/06/30 09:09:28;;;;;;;10.52;5.40;;;;;;;23.32;64.77;101062.00;5110112;28;20035;-57
2022/06/30 09:11:56;;;;;;;11.48;4.63;;;;;;;23.63;63.69;101061.78;5115871;28;20118;-57
2022/06/30 09:14:33;;;;;;;8.65;4.43;;;;;;;24.40;62.95;101061.16;5098890;28;20091;-58
2022/06/30 09:16:59;;;;;;;8.85;4.35;;;;;;;24.49;59.19;101057.00;5095900;28;20107;-57
2022/06/30 09:19:25;;;;;;;8.00;3.80;;;;;;;24.77;58.24;101055.94;5096182;28;20028;-57
2022/06/30 09:22:10;;;;;;;6.60;3.63;;;;;;;25.09;60.04;101053.75;5101215;28;20461;-58
2022/06/30 09:24:36;;;;;;;7.72;3.60;;;;;;;25.79;54.26;101054.91;5116043;28;20036;-58
2022/06/30 09:27:19;;;;;;;7.57;4.07;;;;;;;26.51;52.77;101057.56;5116649;28;20118;-57
2022/06/30 09:29:45;;;;;;;8.75;3.50;;;;;;;27.63;48.46;101058.56;5116262;28;20039;-57
2022/06/30 09:32:10;;;;;;;6.43;3.40;;;;;;;28.07;45.15;101049.50;5116520;28;20028;-57
2022/06/30 09:34:38;;;;;;;7.85;3.00;;;;;;;28.47;45.56;101055.13;5108005;28;20115;-57
2022/06/30 09:37:14;;;;;;;6.72;3.60;;;;;;;28.19;47.31;101040.44;5107067;28;20032;-58
2022/06/30 09:39:45;;;;;;;8.07;3.85;;;;;;;27.68;47.35;101064.44;5111973;28;20028;-58
2022/06/30 09:42:11;;;;;;;7.47;3.85;;;;;;;27.31;48.62;101063.81;5113587;28;20035;-58
2022/06/30 09:44:36;;;;;;;8.70;3.50;;;;;;;26.55;50.77;101061.72;5115196;28;20054;-58
2022/06/30 09:47:10;;;;;;;8.63;3.40;;;;;;;26.11;53.48;101055.22;5115291;28;20035;-58
2022/06/30 09:49:42;;;;;;;6.70;3.22;;;;;;;25.93;52.52;101069.97;5106799;28;20032;-58
2022/06/30 09:52:24;;;;;;;8.05;3.65;;;;;;;25.60;54.72;101067.91;5107424;28;20070;-58
2022/06/30 09:54:59;;;;;;;5.05;4.07;;;;;;;25.51;54.04;101072.09;5103966;28;20040;-58
2022/06/30 09:57:32;;;;;;;8.52;4.65;;;;;;;25.25;53.47;101068.63;5103940;28;20036;-58
2022/06/30 10:00:00;;;;;;;6.50;3.05;;;;;;;25.11;54.29;101065.22;5105025;28;20024;-58
2022/06/30 10:02:31;;;;;;;5.03;2.67;;;;;;;25.08;55.21;101065.44;5103642;28;20046;-58
2022/06/30 10:04:57;;;;;;;7.68;3.60;;;;;;;25.07;53.61;101069.06;5115257;28;20047;-58
2022/06/30 10:07:23;;;;;;;6.30;3.60;;;;;;;25.12;55.08;101066.91;5115127;28;20107;-58
2022/06/30 10:09:50;;;;;;;9.57;3.80;;;;;;;25.16;54.31;101071.94;5115585;28;20031;-61
2022/06/30 10:12:18;;;;;;;7.68;3.30;;;;;;;25.35;55.17;101076.00;5115489;28;20024;-60
2022/06/30 10:14:44;;;;;;;7.70;4.13;;;;;;;25.33;54.01;101068.94;5115056;28;20431;-61
2022/06/30 10:17:10;;;;;;;7.20;4.28;;;;;;;25.42;54.03;101072.78;5115044;28;20038;-61
2022/06/30 10:19:35;;;;;;;4.45;3.10;;;;;;;25.37;54.32;101076.75;5115271;28;20032;-60
2022/06/30 10:22:01;;;;;;;7.03;3.30;;;;;;;25.50;53.21;101073.06;5115288;28;20035;-59
2022/06/30 10:24:27;;;;;;;8.25;3.00;;;;;;;25.75;53.64;101065.97;5115470;28;20042;-61
2022/06/30 10:27:12;;;;;;;7.53;3.40;;;;;;;25.91;52.37;101054.00;5115222;28;20093;-59
2022/06/30 10:29:40;;;;;;;8.68;2.60;;;;;;;25.87;52.49;101057.03;5106256;28;20131;-61
2022/06/30 10:32:12;;;;;;;4.57;2.58;;;;;;;25.80;53.22;101056.59;5097517;28;20046;-60
2022/06/30 10:34:44;;;;;;;6.13;3.20;;;;;;;25.45;53.04;101063.66;5095063;28;20339;-62
2022/06/30 10:37:26;;;;;;;6.00;3.25;;;;;;;25.28;53.69;101057.66;5094842;28;20032;-62
2022/06/30 10:40:23;;;;;;;7.65;2.80;;;;;;;25.36;54.28;101061.63;5094592;28;20043;-60
2022/06/30 10:42:54;;;;;;;5.82;2.60;;;;;;;25.51;54.84;101063.22;5094244;28;20036;-63
2022/06/30 10:45:25;;;;;;;7.93;2.78;;;;;;;25.82;54.63;101068.06;5094644;28;20039;-61
2022/06/30 10:47:57;;;;;;;7.75;2.67;;;;;;;26.13;55.41;101058.63;5094898;28;20077;-61
2022/06/30 10:50:39;;;;;;;6.90;3.17;;;;;;;26.16;53.13;101057.53;5094515;28;20032;-59
2022/06/30 10:53:06;;;;;;;5.78;3.50;;;;;;;26.00;52.40;101055.13;5094385;28;20031;-60
2022/06/30 10:55:51;;;;;;;8.40;3.17;;;;;;;26.18;53.24;101048.38;5094613;28;20031;-59
2022/06/30 10:58:17;;;;;;;7.65;3.30;;;;;;;26.12;52.54;101043.50;5098157;28;20036;-61
2022/06/30 11:00:55;;;;;;;4.55;2.70;;;;;;;26.08;52.82;101058.13;5098235;28;20466;-62
2022/06/30 11:03:29;;;;;;;5.15;2.40;;;;;;;25.99;53.22;101056.97;5098342;28;20164;-61
2022/06/30 11:05:57;;;;;;;4.85;2.47;;;;;;;25.83;53.92;101066.25;5098570;28;20046;-60
2022/06/30 11:08:58;;;;;;;4.88;2.50;;;;;;;25.69;53.51;101056.53;5098694;28;20035;-61
2022/06/30 11:11:22;;;;;;;5.35;2.40;;;;;;;25.49;52.95;101057.09;5097814;28;20040;-60
2022/06/30 11:14:00;;;;;;;4.27;2.20;;;;;;;25.46;54.52;101038.56;5098300;28;20024;-59
2022/06/30 11:16:25;;;;;;;5.93;2.42;;;;;;;26.12;53.74;101050.69;5098122;28;20347;-61
2022/06/30 11:18:50;;;;;;;6.68;2.60;;;;;;;26.23;52.47;101048.06;5098252;28;20024;-60
2022/06/30 11:21:16;;;;;;;5.22;2.53;;;;;;;26.16;52.28;101052.16;5098225;28;20130;-60
2022/06/30 11:23:44;;;;;;;5.65;3.05;;;;;;;26.20;51.45;101040.22;5098074;28;20118;-59
2022/06/30 11:28:55;;;;;;;7.28;3.40;;;;;;;26.13;53.42;101044.34;5097714;28;20055;-61
2022/06/30 11:31:32;;;;;;;6.80;2.83;;;;;;;25.92;53.38;101045.00;5098236;28;20402;-60
2022/06/30 11:34:13;;;;;;;5.38;2.88;;;;;;;25.86;54.11;101034.72;5117649;28;20092;-61